sensor_id;sensor_type;location;lat;lon;timestamp;P1;durP1;ratioP1;P2;durP2;ratioP2
68938;SDS011;59064;45.294;11.816;2023-04-01T00:00:17;60.40;;;35.30;;
68938;SDS011;59064;45.294;11.816;2023-04-01T00:02:43;62.00;;;35.80;;
68938;SDS011;59064;45.294;11.816;2023-04-01T00:05:09;62.40;;;37.60;;
68938;SDS011;59064;45.294;11.816;2023-04-01T00:07:38;51.60;;;31.10;;
68938;SDS011;59064;45.294;11.816;2023-04-01T00:10:05;58.00;;;34.00;;
68938;SDS011;59064;45.294;11.816;2023-04-01T00:12:32;58.50;;;34.20;;
68938;SDS011;59064;45.294;11.816;2023-04-01T00:14:58;57.20;;;34.20;;
68938;SDS011;59064;45.294;11.816;2023-04-01T00:17:24;46.80;;;27.50;;
68938;SDS011;59064;45.294;11.816;2023-04-01T00:19:50;49.30;;;30.00;;
68938;SDS011;59064;45.294;11.816;2023-04-01T00:22:15;51.20;;;31.80;;
68938;SDS011;59064;45.294;11.816;2023-04-01T00:24:41;55.20;;;32.60;;
68938;SDS011;59064;45.294;11.816;2023-04-01T00:27:07;60.00;;;33.70;;
68938;SDS011;59064;45.294;11.816;2023-04-01T00:29:33;56.50;;;32.00;;
68938;SDS011;59064;45.294;11.816;2023-04-01T00:32:00;53.70;;;29.20;;
68938;SDS011;59064;45.294;11.816;2023-04-01T00:34:26;53.10;;;30.50;;
68938;SDS011;59064;45.294;11.816;2023-04-01T00:36:52;55.90;;;31.60;;
68938;SDS011;59064;45.294;11.816;2023-04-01T00:39:19;62.50;;;32.90;;
68938;SDS011;59064;45.294;11.816;2023-04-01T00:41:46;53.30;;;30.90;;
68938;SDS011;59064;45.294;11.816;2023-04-01T00:44:16;60.50;;;34.80;;
68938;SDS011;59064;45.294;11.816;2023-04-01T00:46:44;56.60;;;32.80;;
68938;SDS011;59064;45.294;11.816;2023-04-01T00:49:10;61.30;;;34.20;;
68938;SDS011;59064;45.294;11.816;2023-04-01T00:51:36;56.50;;;33.40;;
68938;SDS011;59064;45.294;11.816;2023-04-01T00:54:03;58.40;;;32.50;;
68938;SDS011;59064;45.294;11.816;2023-04-01T00:56:32;55.30;;;32.80;;
68938;SDS011;59064;45.294;11.816;2023-04-01T00:59:03;54.30;;;30.60;;
68938;SDS011;59064;45.294;11.816;2023-04-01T01:01:33;48.50;;;29.10;;
68938;SDS011;59064;45.294;11.816;2023-04-01T01:04:00;52.10;;;29.60;;
68938;SDS011;59064;45.294;11.816;2023-04-01T01:09:18;57.70;;;34.30;;
68938;SDS011;59064;45.294;11.816;2023-04-01T01:12:01;62.50;;;36.90;;
68938;SDS011;59064;45.294;11.816;2023-04-01T01:14:45;67.10;;;38.90;;
68938;SDS011;59064;45.294;11.816;2023-04-01T01:36:55;63.50;;;35.10;;
68938;SDS011;59064;45.294;11.816;2023-04-01T01:39:26;66.20;;;36.20;;
68938;SDS011;59064;45.294;11.816;2023-04-01T01:41:58;67.10;;;37.50;;
68938;SDS011;59064;45.294;11.816;2023-04-01T01:44:28;73.50;;;40.30;;
68938;SDS011;59064;45.294;11.816;2023-04-01T01:46:55;72.80;;;39.50;;
68938;SDS011;59064;45.294;11.816;2023-04-01T01:49:22;81.20;;;45.60;;
68938;SDS011;59064;45.294;11.816;2023-04-01T01:51:48;88.00;;;45.90;;
68938;SDS011;59064;45.294;11.816;2023-04-01T01:54:15;71.70;;;39.10;;
68938;SDS011;59064;45.294;11.816;2023-04-01T01:56:42;72.60;;;42.10;;
68938;SDS011;59064;45.294;11.816;2023-04-01T01:59:11;60.60;;;33.20;;
68938;SDS011;59064;45.294;11.816;2023-04-01T02:01:41;62.90;;;36.20;;
68938;SDS011;59064;45.294;11.816;2023-04-01T02:04:09;61.20;;;34.50;;
68938;SDS011;59064;45.294;11.816;2023-04-01T02:06:37;74.10;;;42.00;;
68938;SDS011;59064;45.294;11.816;2023-04-01T02:09:05;68.20;;;38.80;;
68938;SDS011;59064;45.294;11.816;2023-04-01T02:11:49;60.70;;;34.40;;
68938;SDS011;59064;45.294;11.816;2023-04-01T02:14:19;64.40;;;36.10;;
68938;SDS011;59064;45.294;11.816;2023-04-01T02:16:51;70.20;;;38.90;;
68938;SDS011;59064;45.294;11.816;2023-04-01T02:19:38;61.60;;;34.80;;
68938;SDS011;59064;45.294;11.816;2023-04-01T02:22:08;70.80;;;41.50;;
68938;SDS011;59064;45.294;11.816;2023-04-01T02:24:37;70.20;;;38.20;;
68938;SDS011;59064;45.294;11.816;2023-04-01T02:27:06;65.20;;;36.50;;
68938;SDS011;59064;45.294;11.816;2023-04-01T02:29:32;69.70;;;40.10;;
68938;SDS011;59064;45.294;11.816;2023-04-01T02:31:58;70.30;;;40.20;;
68938;SDS011;59064;45.294;11.816;2023-04-01T02:34:24;58.00;;;33.10;;
68938;SDS011;59064;45.294;11.816;2023-04-01T02:36:50;66.90;;;37.80;;
68938;SDS011;59064;45.294;11.816;2023-04-01T02:39:16;68.50;;;37.80;;
68938;SDS011;59064;45.294;11.816;2023-04-01T02:41:43;62.90;;;36.00;;
68938;SDS011;59064;45.294;11.816;2023-04-01T02:44:11;61.70;;;34.90;;
68938;SDS011;59064;45.294;11.816;2023-04-01T02:46:37;57.70;;;30.80;;
68938;SDS011;59064;45.294;11.816;2023-04-01T02:49:03;69.10;;;36.10;;
68938;SDS011;59064;45.294;11.816;2023-04-01T02:51:29;52.90;;;30.50;;
68938;SDS011;59064;45.294;11.816;2023-04-01T02:53:55;57.10;;;34.10;;
68938;SDS011;59064;45.294;11.816;2023-04-01T02:56:20;53.30;;;32.90;;
68938;SDS011;59064;45.294;11.816;2023-04-01T02:58:46;56.50;;;33.80;;
68938;SDS011;59064;45.294;11.816;2023-04-01T03:01:12;66.20;;;38.60;;
68938;SDS011;59064;45.294;11.816;2023-04-01T03:03:38;55.20;;;33.50;;
68938;SDS011;59064;45.294;11.816;2023-04-01T03:06:07;60.70;;;35.60;;
68938;SDS011;59064;45.294;11.816;2023-04-01T03:08:34;85.20;;;40.60;;
68938;SDS011;59064;45.294;11.816;2023-04-01T03:11:00;65.90;;;38.70;;
68938;SDS011;59064;45.294;11.816;2023-04-01T03:13:25;69.70;;;41.20;;
68938;SDS011;59064;45.294;11.816;2023-04-01T03:15:51;87.30;;;48.30;;
68938;SDS011;59064;45.294;11.816;2023-04-01T03:18:17;86.40;;;48.30;;
68938;SDS011;59064;45.294;11.816;2023-04-01T03:20:42;99.70;;;54.40;;
68938;SDS011;59064;45.294;11.816;2023-04-01T03:23:08;88.70;;;46.20;;
68938;SDS011;59064;45.294;11.816;2023-04-01T03:25:33;84.30;;;45.50;;
68938;SDS011;59064;45.294;11.816;2023-04-01T03:27:59;70.00;;;37.60;;
68938;SDS011;59064;45.294;11.816;2023-04-01T03:30:26;66.40;;;36.50;;
68938;SDS011;59064;45.294;11.816;2023-04-01T03:32:51;80.70;;;43.90;;
68938;SDS011;59064;45.294;11.816;2023-04-01T03:35:17;83.60;;;43.80;;
68938;SDS011;59064;45.294;11.816;2023-04-01T03:37:43;77.40;;;41.80;;
68938;SDS011;59064;45.294;11.816;2023-04-01T03:40:09;80.30;;;44.00;;
68938;SDS011;59064;45.294;11.816;2023-04-01T03:42:35;92.80;;;51.20;;
68938;SDS011;59064;45.294;11.816;2023-04-01T03:45:00;77.40;;;39.10;;
68938;SDS011;59064;45.294;11.816;2023-04-01T03:47:27;63.10;;;35.10;;
68938;SDS011;59064;45.294;11.816;2023-04-01T03:49:54;79.90;;;41.50;;
68938;SDS011;59064;45.294;11.816;2023-04-01T03:52:20;79.80;;;43.50;;
68938;SDS011;59064;45.294;11.816;2023-04-01T03:54:45;79.80;;;43.40;;
68938;SDS011;59064;45.294;11.816;2023-04-01T03:57:11;73.50;;;39.40;;
68938;SDS011;59064;45.294;11.816;2023-04-01T03:59:36;71.10;;;38.90;;
68938;SDS011;59064;45.294;11.816;2023-04-01T04:02:02;71.70;;;38.30;;
68938;SDS011;59064;45.294;11.816;2023-04-01T04:04:28;60.20;;;33.70;;
68938;SDS011;59064;45.294;11.816;2023-04-01T04:06:53;67.50;;;36.40;;
68938;SDS011;59064;45.294;11.816;2023-04-01T04:09:19;75.60;;;39.90;;
68938;SDS011;59064;45.294;11.816;2023-04-01T04:11:46;74.40;;;40.00;;
68938;SDS011;59064;45.294;11.816;2023-04-01T04:14:11;80.70;;;44.40;;
68938;SDS011;59064;45.294;11.816;2023-04-01T04:16:37;88.40;;;46.40;;
68938;SDS011;59064;45.294;11.816;2023-04-01T04:19:03;78.70;;;44.20;;
68938;SDS011;59064;45.294;11.816;2023-04-01T04:21:29;80.10;;;44.40;;
68938;SDS011;59064;45.294;11.816;2023-04-01T04:23:54;89.50;;;48.60;;
68938;SDS011;59064;45.294;11.816;2023-04-01T04:26:20;86.10;;;45.40;;
68938;SDS011;59064;45.294;11.816;2023-04-01T04:28:45;96.40;;;53.10;;
68938;SDS011;59064;45.294;11.816;2023-04-01T04:31:11;85.40;;;46.30;;
68938;SDS011;59064;45.294;11.816;2023-04-01T04:33:42;75.40;;;38.90;;
68938;SDS011;59064;45.294;11.816;2023-04-01T04:36:08;67.60;;;39.50;;
68938;SDS011;59064;45.294;11.816;2023-04-01T04:38:33;66.80;;;38.80;;
68938;SDS011;59064;45.294;11.816;2023-04-01T04:40:59;66.10;;;37.60;;
68938;SDS011;59064;45.294;11.816;2023-04-01T04:43:24;68.20;;;39.60;;
68938;SDS011;59064;45.294;11.816;2023-04-01T04:45:50;66.30;;;37.60;;
68938;SDS011;59064;45.294;11.816;2023-04-01T04:48:16;66.90;;;37.00;;
68938;SDS011;59064;45.294;11.816;2023-04-01T04:50:47;82.40;;;43.60;;
68938;SDS011;59064;45.294;11.816;2023-04-01T04:53:14;82.30;;;44.10;;
68938;SDS011;59064;45.294;11.816;2023-04-01T04:55:44;87.40;;;48.10;;
68938;SDS011;59064;45.294;11.816;2023-04-01T04:58:11;94.70;;;49.00;;
68938;SDS011;59064;45.294;11.816;2023-04-01T05:00:37;89.40;;;48.50;;
68938;SDS011;59064;45.294;11.816;2023-04-01T05:03:02;78.00;;;42.90;;
68938;SDS011;59064;45.294;11.816;2023-04-01T05:05:28;82.50;;;44.40;;
68938;SDS011;59064;45.294;11.816;2023-04-01T05:07:54;78.00;;;42.90;;
68938;SDS011;59064;45.294;11.816;2023-04-01T05:10:19;75.00;;;43.00;;
68938;SDS011;59064;45.294;11.816;2023-04-01T05:12:46;75.50;;;41.20;;
68938;SDS011;59064;45.294;11.816;2023-04-01T05:15:11;78.10;;;45.20;;
68938;SDS011;59064;45.294;11.816;2023-04-01T05:17:37;78.50;;;44.50;;
68938;SDS011;59064;45.294;11.816;2023-04-01T05:20:02;71.80;;;39.30;;
68938;SDS011;59064;45.294;11.816;2023-04-01T05:22:29;73.50;;;41.30;;
68938;SDS011;59064;45.294;11.816;2023-04-01T05:24:54;69.00;;;38.60;;
68938;SDS011;59064;45.294;11.816;2023-04-01T05:27:20;65.80;;;38.30;;
68938;SDS011;59064;45.294;11.816;2023-04-01T05:29:46;63.60;;;35.50;;
68938;SDS011;59064;45.294;11.816;2023-04-01T05:32:11;70.90;;;41.00;;
68938;SDS011;59064;45.294;11.816;2023-04-01T05:34:37;61.90;;;37.20;;
68938;SDS011;59064;45.294;11.816;2023-04-01T05:37:02;58.60;;;37.00;;
68938;SDS011;59064;45.294;11.816;2023-04-01T05:39:28;59.20;;;37.90;;
68938;SDS011;59064;45.294;11.816;2023-04-01T05:41:53;46.20;;;30.60;;
68938;SDS011;59064;45.294;11.816;2023-04-01T05:44:19;51.60;;;32.80;;
68938;SDS011;59064;45.294;11.816;2023-04-01T05:46:44;50.80;;;32.50;;
68938;SDS011;59064;45.294;11.816;2023-04-01T05:49:10;50.70;;;34.30;;
68938;SDS011;59064;45.294;11.816;2023-04-01T05:51:35;60.80;;;34.80;;
68938;SDS011;59064;45.294;11.816;2023-04-01T05:54:03;52.90;;;30.40;;
68938;SDS011;59064;45.294;11.816;2023-04-01T05:56:29;47.40;;;27.10;;
68938;SDS011;59064;45.294;11.816;2023-04-01T05:58:55;46.70;;;28.80;;
68938;SDS011;59064;45.294;11.816;2023-04-01T06:01:20;46.30;;;28.10;;
68938;SDS011;59064;45.294;11.816;2023-04-01T06:03:46;53.80;;;31.50;;
68938;SDS011;59064;45.294;11.816;2023-04-01T06:06:45;57.90;;;34.60;;
68938;SDS011;59064;45.294;11.816;2023-04-01T06:09:12;61.40;;;36.70;;
68938;SDS011;59064;45.294;11.816;2023-04-01T06:17:13;54.40;;;33.40;;
68938;SDS011;59064;45.294;11.816;2023-04-01T06:31:43;46.20;;;29.10;;
68938;SDS011;59064;45.294;11.816;2023-04-01T06:50:15;45.80;;;31.20;;
68938;SDS011;59064;45.294;11.816;2023-04-01T06:52:48;45.10;;;29.80;;
68938;SDS011;59064;45.294;11.816;2023-04-01T06:55:24;42.80;;;29.40;;
68938;SDS011;59064;45.294;11.816;2023-04-01T06:57:52;44.20;;;28.90;;
68938;SDS011;59064;45.294;11.816;2023-04-01T07:00:27;38.60;;;26.40;;
68938;SDS011;59064;45.294;11.816;2023-04-01T07:05:23;46.40;;;30.20;;
68938;SDS011;59064;45.294;11.816;2023-04-01T07:07:52;49.40;;;30.30;;
68938;SDS011;59064;45.294;11.816;2023-04-01T07:10:28;41.40;;;28.20;;
68938;SDS011;59064;45.294;11.816;2023-04-01T07:13:06;44.80;;;29.40;;
68938;SDS011;59064;45.294;11.816;2023-04-01T07:15:39;52.10;;;32.90;;
68938;SDS011;59064;45.294;11.816;2023-04-01T07:18:17;52.80;;;31.80;;
68938;SDS011;59064;45.294;11.816;2023-04-01T07:20:48;48.80;;;32.40;;
68938;SDS011;59064;45.294;11.816;2023-04-01T07:23:22;42.90;;;27.40;;
68938;SDS011;59064;45.294;11.816;2023-04-01T07:25:52;50.10;;;31.00;;
68938;SDS011;59064;45.294;11.816;2023-04-01T07:28:23;44.80;;;29.30;;
68938;SDS011;59064;45.294;11.816;2023-04-01T07:30:52;48.10;;;31.40;;
68938;SDS011;59064;45.294;11.816;2023-04-01T07:33:43;47.40;;;31.50;;
68938;SDS011;59064;45.294;11.816;2023-04-01T07:44:00;55.30;;;32.40;;
68938;SDS011;59064;45.294;11.816;2023-04-01T07:50:02;50.40;;;31.40;;
68938;SDS011;59064;45.294;11.816;2023-04-01T07:52:42;53.40;;;33.50;;
68938;SDS011;59064;45.294;11.816;2023-04-01T07:55:27;45.90;;;27.50;;
68938;SDS011;59064;45.294;11.816;2023-04-01T08:01:31;48.00;;;30.40;;
68938;SDS011;59064;45.294;11.816;2023-04-01T08:06:31;47.90;;;30.60;;
68938;SDS011;59064;45.294;11.816;2023-04-01T08:09:08;45.60;;;29.10;;
68938;SDS011;59064;45.294;11.816;2023-04-01T08:14:26;43.80;;;26.90;;
68938;SDS011;59064;45.294;11.816;2023-04-01T08:20:18;42.80;;;24.70;;
68938;SDS011;59064;45.294;11.816;2023-04-01T08:22:57;40.40;;;27.90;;
68938;SDS011;59064;45.294;11.816;2023-04-01T08:25:28;43.50;;;26.80;;
68938;SDS011;59064;45.294;11.816;2023-04-01T08:30:43;39.60;;;25.10;;
68938;SDS011;59064;45.294;11.816;2023-04-01T08:33:30;38.30;;;24.70;;
68938;SDS011;59064;45.294;11.816;2023-04-01T08:57:45;38.90;;;23.90;;
68938;SDS011;59064;45.294;11.816;2023-04-01T09:17:09;30.20;;;19.80;;
68938;SDS011;59064;45.294;11.816;2023-04-01T09:52:24;39.60;;;26.80;;
68938;SDS011;59064;45.294;11.816;2023-04-01T10:09:08;33.40;;;22.90;;
68938;SDS011;59064;45.294;11.816;2023-04-01T10:36:40;35.80;;;26.20;;
68938;SDS011;59064;45.294;11.816;2023-04-01T10:39:13;35.90;;;23.60;;
68938;SDS011;59064;45.294;11.816;2023-04-01T11:17:48;35.00;;;25.00;;
68938;SDS011;59064;45.294;11.816;2023-04-01T11:26:09;34.50;;;24.30;;
68938;SDS011;59064;45.294;11.816;2023-04-01T11:33:50;32.80;;;23.50;;
68938;SDS011;59064;45.294;11.816;2023-04-01T11:42:20;30.10;;;21.40;;
68938;SDS011;59064;45.294;11.816;2023-04-01T11:47:56;31.20;;;22.60;;
68938;SDS011;59064;45.294;11.816;2023-04-01T11:56:09;29.50;;;22.20;;
68938;SDS011;59064;45.294;11.816;2023-04-01T12:01:23;35.80;;;25.00;;
68938;SDS011;59064;45.294;11.816;2023-04-01T12:10:02;28.40;;;21.00;;
68938;SDS011;59064;45.294;11.816;2023-04-01T12:12:51;27.70;;;20.70;;
68938;SDS011;59064;45.294;11.816;2023-04-01T12:20:38;26.20;;;18.00;;
68938;SDS011;59064;45.294;11.816;2023-04-01T12:29:07;29.50;;;20.70;;
68938;SDS011;59064;45.294;11.816;2023-04-01T12:44:54;17.20;;;13.10;;
68938;SDS011;59064;45.294;11.816;2023-04-01T12:55:54;19.50;;;13.80;;
68938;SDS011;59064;45.294;11.816;2023-04-01T13:28:18;13.30;;;9.00;;
68938;SDS011;59064;45.294;11.816;2023-04-01T13:36:14;16.00;;;8.70;;
68938;SDS011;59064;45.294;11.816;2023-04-01T13:44:46;12.30;;;8.50;;
68938;SDS011;59064;45.294;11.816;2023-04-01T14:23:11;17.40;;;11.20;;
68938;SDS011;59064;45.294;11.816;2023-04-01T14:28:52;14.30;;;10.00;;
68938;SDS011;59064;45.294;11.816;2023-04-01T14:36:37;15.00;;;11.40;;
68938;SDS011;59064;45.294;11.816;2023-04-01T14:52:39;13.50;;;9.70;;
68938;SDS011;59064;45.294;11.816;2023-04-01T14:55:21;16.40;;;12.20;;
68938;SDS011;59064;45.294;11.816;2023-04-01T14:58:07;14.40;;;10.40;;
68938;SDS011;59064;45.294;11.816;2023-04-01T15:05:53;15.50;;;11.40;;
68938;SDS011;59064;45.294;11.816;2023-04-01T15:08:26;14.70;;;10.90;;
68938;SDS011;59064;45.294;11.816;2023-04-01T15:11:29;14.70;;;11.30;;
68938;SDS011;59064;45.294;11.816;2023-04-01T15:13:58;16.70;;;11.20;;
68938;SDS011;59064;45.294;11.816;2023-04-01T15:16:34;13.40;;;9.70;;
68938;SDS011;59064;45.294;11.816;2023-04-01T15:22:39;15.50;;;11.00;;
68938;SDS011;59064;45.294;11.816;2023-04-01T15:25:23;14.30;;;10.80;;
68938;SDS011;59064;45.294;11.816;2023-04-01T15:30:47;14.00;;;10.60;;
68938;SDS011;59064;45.294;11.816;2023-04-01T15:33:39;14.30;;;10.80;;
68938;SDS011;59064;45.294;11.816;2023-04-01T15:44:00;14.40;;;9.90;;
68938;SDS011;59064;45.294;11.816;2023-04-01T15:57:44;14.30;;;10.50;;
68938;SDS011;59064;45.294;11.816;2023-04-01T16:11:02;14.20;;;10.70;;
68938;SDS011;59064;45.294;11.816;2023-04-01T16:13:46;15.40;;;10.20;;
68938;SDS011;59064;45.294;11.816;2023-04-01T16:21:52;15.30;;;11.80;;
68938;SDS011;59064;45.294;11.816;2023-04-01T16:24:31;13.50;;;10.60;;
68938;SDS011;59064;45.294;11.816;2023-04-01T16:27:16;13.20;;;10.30;;
68938;SDS011;59064;45.294;11.816;2023-04-01T16:29:51;14.90;;;10.70;;
68938;SDS011;59064;45.294;11.816;2023-04-01T16:35:23;14.50;;;11.60;;
68938;SDS011;59064;45.294;11.816;2023-04-01T16:38:05;15.20;;;10.90;;
68938;SDS011;59064;45.294;11.816;2023-04-01T16:43:42;15.20;;;11.30;;
68938;SDS011;59064;45.294;11.816;2023-04-01T16:56:43;13.20;;;10.30;;
68938;SDS011;59064;45.294;11.816;2023-04-01T16:59:14;16.30;;;10.60;;
68938;SDS011;59064;45.294;11.816;2023-04-01T17:04:37;16.90;;;9.80;;
68938;SDS011;59064;45.294;11.816;2023-04-01T17:07:18;16.20;;;10.40;;
68938;SDS011;59064;45.294;11.816;2023-04-01T17:20:38;19.90;;;12.30;;
68938;SDS011;59064;45.294;11.816;2023-04-01T17:28:46;25.60;;;15.60;;
68938;SDS011;59064;45.294;11.816;2023-04-01T17:36:58;24.70;;;14.50;;
68938;SDS011;59064;45.294;11.816;2023-04-01T17:44:57;24.60;;;15.90;;
68938;SDS011;59064;45.294;11.816;2023-04-01T17:47:31;28.00;;;17.70;;
68938;SDS011;59064;45.294;11.816;2023-04-01T17:53:02;29.00;;;18.20;;
68938;SDS011;59064;45.294;11.816;2023-04-01T17:58:28;40.70;;;20.70;;
68938;SDS011;59064;45.294;11.816;2023-04-01T18:12:35;30.90;;;16.60;;
68938;SDS011;59064;45.294;11.816;2023-04-01T18:23:36;41.00;;;22.90;;
68938;SDS011;59064;45.294;11.816;2023-04-01T18:26:05;41.80;;;22.60;;
68938;SDS011;59064;45.294;11.816;2023-04-01T18:28:37;41.00;;;22.50;;
68938;SDS011;59064;45.294;11.816;2023-04-01T18:31:07;48.60;;;27.30;;
68938;SDS011;59064;45.294;11.816;2023-04-01T18:37:00;47.30;;;25.20;;
68938;SDS011;59064;45.294;11.816;2023-04-01T18:39:22;41.50;;;23.10;;
68938;SDS011;59064;45.294;11.816;2023-04-01T18:44:55;47.80;;;25.50;;
68938;SDS011;59064;45.294;11.816;2023-04-01T18:55:40;51.10;;;26.90;;
68938;SDS011;59064;45.294;11.816;2023-04-01T19:09:18;39.00;;;22.50;;
68938;SDS011;59064;45.294;11.816;2023-04-01T19:14:50;49.70;;;29.00;;
68938;SDS011;59064;45.294;11.816;2023-04-01T19:20:20;61.10;;;32.90;;
68938;SDS011;59064;45.294;11.816;2023-04-01T19:25:56;50.80;;;30.60;;
68938;SDS011;59064;45.294;11.816;2023-04-01T19:33:44;52.40;;;29.10;;
68938;SDS011;59064;45.294;11.816;2023-04-01T19:44:36;49.20;;;29.10;;
68938;SDS011;59064;45.294;11.816;2023-04-01T19:47:30;55.60;;;30.30;;
68938;SDS011;59064;45.294;11.816;2023-04-01T19:52:45;48.10;;;29.10;;
68938;SDS011;59064;45.294;11.816;2023-04-01T20:00:41;51.60;;;27.60;;
68938;SDS011;59064;45.294;11.816;2023-04-01T20:06:02;50.10;;;25.20;;
68938;SDS011;59064;45.294;11.816;2023-04-01T20:08:35;48.20;;;25.00;;
68938;SDS011;59064;45.294;11.816;2023-04-01T20:19:24;59.60;;;35.40;;
68938;SDS011;59064;45.294;11.816;2023-04-01T20:34:01;52.00;;;30.50;;
68938;SDS011;59064;45.294;11.816;2023-04-01T20:44:33;42.70;;;26.80;;
68938;SDS011;59064;45.294;11.816;2023-04-01T20:53:16;48.50;;;26.10;;
68938;SDS011;59064;45.294;11.816;2023-04-01T21:01:41;41.80;;;25.50;;
68938;SDS011;59064;45.294;11.816;2023-04-01T21:04:20;44.60;;;26.10;;
68938;SDS011;59064;45.294;11.816;2023-04-01T21:13:01;47.00;;;27.80;;
68938;SDS011;59064;45.294;11.816;2023-04-01T21:18:39;42.10;;;23.30;;
68938;SDS011;59064;45.294;11.816;2023-04-01T21:35:27;44.00;;;25.60;;
68938;SDS011;59064;45.294;11.816;2023-04-01T21:38:07;44.30;;;24.00;;
68938;SDS011;59064;45.294;11.816;2023-04-01T21:57:39;45.50;;;25.80;;
68938;SDS011;59064;45.294;11.816;2023-04-01T22:05:47;45.90;;;25.80;;
68938;SDS011;59064;45.294;11.816;2023-04-01T22:11:11;47.20;;;27.10;;
68938;SDS011;59064;45.294;11.816;2023-04-01T22:31:07;51.20;;;29.00;;
68938;SDS011;59064;45.294;11.816;2023-04-01T22:33:49;59.00;;;32.40;;
68938;SDS011;59064;45.294;11.816;2023-04-01T22:50:18;55.50;;;28.90;;
68938;SDS011;59064;45.294;11.816;2023-04-01T22:52:48;59.30;;;32.80;;
68938;SDS011;59064;45.294;11.816;2023-04-01T22:55:24;61.20;;;32.30;;
68938;SDS011;59064;45.294;11.816;2023-04-01T23:00:30;51.80;;;27.20;;
68938;SDS011;59064;45.294;11.816;2023-04-01T23:03:20;55.30;;;29.90;;
68938;SDS011;59064;45.294;11.816;2023-04-01T23:05:52;54.30;;;29.60;;
68938;SDS011;59064;45.294;11.816;2023-04-01T23:16:39;56.50;;;32.10;;
68938;SDS011;59064;45.294;11.816;2023-04-01T23:19:21;52.50;;;28.70;;
68938;SDS011;59064;45.294;11.816;2023-04-01T23:25:01;44.90;;;26.40;;
68938;SDS011;59064;45.294;11.816;2023-04-01T23:38:16;50.20;;;26.70;;
68938;SDS011;59064;45.294;11.816;2023-04-01T23:40:43;54.30;;;27.20;;
68938;SDS011;59064;45.294;11.816;2023-04-01T23:43:25;51.00;;;27.10;;
68938;SDS011;59064;45.294;11.816;2023-04-01T23:45:54;42.00;;;20.00;;
68938;SDS011;59064;45.294;11.816;2023-04-01T23:48:23;42.40;;;19.80;;
68938;SDS011;59064;45.294;11.816;2023-04-01T23:50:53;33.10;;;16.70;;
68938;SDS011;59064;45.294;11.816;2023-04-01T23:53:21;50.00;;;24.30;;
68938;SDS011;59064;45.294;11.816;2023-04-01T23:55:50;49.20;;;25.50;;
